<<    Oktober 2012    >>
Datum    Temp.       Tempmin      Tempmax    Taup.       Taup.min      Taup.max    Feuchte    Feuchtemin    Feuchtemax    Druck    Druckmin    Druckmax    Regen    Wind    Benmax  
  01.10.2012  12,5    6,1    06:59    20,4    16:24  6,2    3,7    20:30    10,1    12:06  69,5    37    17:07    97    09:01  1017,7    1014    17:12    1021    01:58  0,0  1,1  9,7  
  02.10.2012  14,6    11,7    02:32    18,6    17:10  9,4    6,1    00:24    13,3    15:40  71,0    64    00:00    80    15:32  1015,7    1015    03:41    1017    00:00  0,0  1,4  9,7  
  03.10.2012  15,0    12,8    21:38    19,8    12:54  11,1    8,4    13:20    13,3    19:35  78,8    49    13:20    98    23:59  1011,6    1008    23:10    1015    00:00  7,6  2,6  17,3  
  04.10.2012  12,2    8,9    22:43    14,3    17:01  11,3    8,2    22:26    13,2    10:53  94,5    75    17:14    98    00:00  1009,0    1003    08:25    1017    23:59  16,2  2,0  19,1  
  05.10.2012  13,6    9,2    00:00    19,1    15:25  12,3    8,6    00:00    15,5    11:08  92,1    72    12:52    98    07:14  1011,0    1007    10:40    1017    00:00  11,4  3,1  20,2  
  06.10.2012  12,6    8,0    23:00    16,2    12:00  12,3    7,7    23:00    15,9    12:00  98,0    98    00:00    98    00:00  1011,2    1007    06:25    1016    21:54  5,8  1,0  17,3  
  07.10.2012  10,4    6,6    22:34    15,2    16:01  8,1    3,9    15:22    12,2    12:16  87,4    49    15:22    98    00:00  1020,0    1015    01:24    1025    23:59  0,0  1,6  16,2  
  08.10.2012  9,5    4,5    05:01    15,1    14:30  6,3    4,1    14:55    9,8    23:31  82,9    49    14:33    98    00:00  1020,0    1012    23:24    1026    00:09  0,0  1,4  14,0  
  09.10.2012  10,8    5,1    23:59    14,3    13:52  7,3    2,6    17:06    10,6    02:19  81,2    48    17:06    98    02:19  1014,6    1010    04:24    1018    23:59  0,0  1,6  14,0  
  10.10.2012  7,5    2,2    07:22    14,8    14:52  3,8    1,9    07:22    9,3    12:20  80,1    46    13:40    98    03:44  1017,6    1016    17:24    1018    00:00  0,0  0,8  10,4  
  11.10.2012  9,7    4,4    04:55    15,3    14:07  5,2    3,0    00:33    7,8    19:49  75,3    48    13:16    95    05:23  1012,5    1007    23:59    1018    00:00  0,0  1,8  22,7  
  12.10.2012  12,0    8,5    23:38    15,8    13:35  9,5    5,2    21:40    14,9    13:10  85,0    65    17:01    98    06:10  1007,7    1003    07:38    1014    23:59  2,7  2,2  18,4  
  13.10.2012  10,2    7,3    02:22    14,7    14:58  7,0    4,7    18:03    9,6    10:31  81,8    54    17:32    98    23:59  1009,8    1004    17:53    1014    00:00  5,8  2,8  16,6  
  14.10.2012  8,1    5,4    07:00    11,3    14:47  6,5    5,1    07:00    8,7    10:51  90,3    71    14:52    98    00:00  1002,4    999    17:08    1005    00:00  0,9  1,3  9,4  
  15.10.2012  9,2    6,1    05:54    13,3    15:09  6,2    3,1    16:57    11,0    12:38  83,4    51    16:57    98    00:00  1005,2    999    01:23    1011    23:22  0,9  1,4  13,0  
  16.10.2012  9,0    6,8    23:52    12,8    16:23  7,1    5,4    09:46    10,0    14:32  87,8    76    16:32    97    23:46  1009,1    1007    07:22    1012    21:38  2,1  3,0  16,9  
  17.10.2012  11,2    6,2    03:20    15,7    23:24  9,5    5,9    03:20    12,9    20:55  90,0    76    13:11    98    00:07  1009,2    1007    12:07    1012    00:22  0,0  2,8  20,2  
  18.10.2012  17,0    14,2    03:57    21,5    16:45  11,4    10,2    12:51    12,2    04:56  70,4    52    17:11    85    04:14  1008,8    1007    00:07    1011    21:36  0,0  2,3  15,5  
  19.10.2012  17,4    13,8    08:12    23,2    15:14  10,8    9,5    05:14    12,4    11:42  66,2    42    15:43    81    08:45  1011,6    1010    00:00    1014    21:54  0,0  1,1  11,5  
  20.10.2012  17,3    13,3    23:59    21,6    13:50  13,0    11,3    05:19    14,6    16:50  76,8    58    13:53    98    23:59  1015,8    1013    00:00    1018    11:52  0,0  1,2  9,4  
  21.10.2012  17,1    12,2    02:23    23,0    15:50  12,9    11,0    23:03    14,8    09:32  78,5    50    16:11    98    00:00  1015,9    1014    16:38    1018    22:22  0,0  0,8  15,5  
  22.10.2012  16,0    12,4    23:57    22,3    15:32  10,4    8,9    16:49    11,5    11:50  71,0    43    16:49    91    23:59  1019,7    1017    01:35    1022    23:59  0,0  0,6  10,4  
  23.10.2012  13,4    10,9    08:00    17,3    15:09  9,9    8,6    14:58    12,0    03:20  80,6    57    15:12    95    01:59  1023,2    1022    00:00    1025    12:50  0,0  0,9  12,6  
  24.10.2012  12,0    9,3    23:59    16,4    16:14  9,6    8,5    05:41    10,8    17:12  85,9    68    15:22    98    23:59  1020,5    1018    16:50    1024    00:07  0,0  0,8  7,9  
  25.10.2012  10,7    8,9    00:56    12,2    14:46  10,1    7,0    23:53    11,4    14:19  96,0    83    23:40    98    00:00  1016,1    1014    17:35    1019    00:20  0,0  0,9  11,2  
  26.10.2012  7,3    4,8    20:16    9,7    00:00  5,4    4,5    20:16    7,1    00:00  88,1    78    02:12    98    19:15  1010,9    1003    23:34    1016    00:50  7,6  1,7  13,0  
  27.10.2012  2,9    -0,5    23:59    7,2    14:37  -3,4    -9,8    15:27    4,7    00:00  67,7    29    15:27    98    00:00  1008,3    1003    00:49    1016    22:19  0,0  3,5  19,4  
  28.10.2012  0,8    -2,8    07:39    6,2    15:28  -1,0    -3,8    00:16    2,2    13:51  87,9    72    15:37    98    09:39  1018,0    1015    00:00    1019    08:06  0,0  0,4  6,8  
  29.10.2012  3,6    -0,6    00:00    6,6    14:39  1,6    -1,6    03:22    5,8    23:59  87,2    70    10:15    98    22:54  1014,9    1008    23:50    1020    00:04  0,9  2,6  12,2  
  30.10.2012  8,0    6,3    00:00    11,6    11:59  7,1    5,9    00:00    10,4    11:30  94,4    80    12:54    98    00:58  1005,9    1005    03:19    1008    00:00  3,9  1,6  15,1  
  31.10.2012  8,3    4,4    04:57    13,1    13:25  4,3    1,5    15:55    7,8    09:08  78,3    48    15:22    98    03:38  1000,2    994    23:59    1006    00:00  0,0  2,9  20,9  
 
  Gesamt  11,0  -2,8            23,2            7,8  -9,8            15,9            82,5  29            98            1012,7  994            1026            65,6  1,7  22,7  
 
  Mittelwert  11,0  7,3            15,4            7,8  5,1            10,8            82,5  59,9            96,0            1012,7  1008,9            1016,5            2,1  1,7  14,4  
  Minimum  0,8  -2,8            6,2            -3,4  -9,8            2,2            66,2  29,0            80,0            1000,2  994,0            1005,0            0,0  0,4  6,8  
  Maximum  17,4  14,2            23,2            13,0  11,3            15,9            98,0  98,0            98,0            1023,2  1022,0            1026,0            16,2  3,5  22,7  

  Heie Tage    Tmax >=30C     0  
  Sommertage    Tmax >=25C     0  
  Warme Tage    Tmax >=20C     6  
  Kalte Tage    Tmax  <10C     4  
  Frosttage    Tmin  <0C     3  
  Eistage    Tmax  <0C     0  
  Regentage > 0 mm    12  
  Regentage > 2 mm    9  
  Regentage > 10 mm    2  
  Regentage > 20 mm    0